createdAt,value
2023-03-28T00:03:28.982Z,0.0
2023-03-28T00:08:35.308Z,0.0
2023-03-28T00:14:19.950Z,0.0
2023-03-28T00:18:48.338Z,0.0
2023-03-28T00:24:18.829Z,0.0
2023-03-28T00:29:01.107Z,0.0
2023-03-28T00:34:07.550Z,0.0
2023-03-28T00:39:37.946Z,0.0
2023-03-28T00:44:20.272Z,0.0
2023-03-28T00:49:51.863Z,0.0
2023-03-28T00:54:34.162Z,0.0
2023-03-28T00:59:40.551Z,0.0
2023-03-28T01:05:10.985Z,0.0
2023-03-28T01:10:47.395Z,0.0
2023-03-28T01:15:19.711Z,0.0
2023-03-28T01:21:00.328Z,0.0
2023-03-28T01:25:56.667Z,0.0
2023-03-28T01:30:19.045Z,0.0
2023-03-28T01:35:25.461Z,0.0
2023-03-28T01:40:31.864Z,0.0
2023-03-28T01:45:38.249Z,0.0
2023-03-28T01:50:44.645Z,0.0
2023-03-28T01:56:11.082Z,0.0
2023-03-28T02:00:57.414Z,0.0
2023-03-28T02:06:03.787Z,0.0
2023-03-28T02:11:10.160Z,0.0
2023-03-28T02:16:16.824Z,0.0
2023-03-28T02:21:23.111Z,0.0
2023-03-28T02:26:49.647Z,0.0
2023-03-28T02:32:00.163Z,0.0
2023-03-28T02:36:42.402Z,0.0
2023-03-28T02:41:48.769Z,0.0
2023-03-28T02:46:55.153Z,0.0
2023-03-28T02:52:01.581Z,0.0
2023-03-28T02:57:07.975Z,0.0
2023-03-28T03:02:15.541Z,0.0
2023-03-28T03:07:21.950Z,0.0
2023-03-28T03:12:28.318Z,0.0
2023-03-28T03:17:34.736Z,0.0
2023-03-28T03:22:41.144Z,0.0
2023-03-28T03:27:47.462Z,0.0
2023-03-28T03:32:53.879Z,0.0
2023-03-28T03:39:14.387Z,0.0
2023-03-28T03:43:06.686Z,0.0
2023-03-28T03:48:13.064Z,0.0
2023-03-28T03:53:19.599Z,0.0
2023-03-28T03:58:26.004Z,0.0
2023-03-28T04:03:32.363Z,0.0
2023-03-28T04:08:38.734Z,0.0
2023-03-28T04:13:45.161Z,0.0
2023-03-28T04:19:15.585Z,0.0
2023-03-28T04:24:17.964Z,0.0
2023-03-28T04:29:04.355Z,0.0
2023-03-28T04:34:10.900Z,0.0
2023-03-28T04:39:17.283Z,0.0
2023-03-28T04:44:23.694Z,0.0
2023-03-28T04:49:30.049Z,0.0
2023-03-28T04:54:36.420Z,0.0
2023-03-28T05:00:06.890Z,0.0
2023-03-28T05:04:49.171Z,0.0
2023-03-28T05:09:55.553Z,0.0
2023-03-28T05:15:02.181Z,5.0
2023-03-28T05:20:28.645Z,10.0
2023-03-28T05:25:15.136Z,15.0
2023-03-28T05:30:41.554Z,20.0
2023-03-28T05:35:27.911Z,25.0
2023-03-28T05:41:18.394Z,35.0
2023-03-28T05:45:40.680Z,40.0
2023-03-28T05:51:07.111Z,45.0
2023-03-28T05:55:53.449Z,55.0
2023-03-28T06:01:00.170Z,60.0
2023-03-28T06:06:06.303Z,65.0
2023-03-28T06:11:12.800Z,70.0
2023-03-28T06:16:39.476Z,80.0
2023-03-28T06:21:25.773Z,85.0
2023-03-28T06:26:32.187Z,100.0
2023-03-28T06:31:38.610Z,110.0
2023-03-28T06:36:44.988Z,110.0
2023-03-28T06:41:51.333Z,115.0
2023-03-28T06:46:57.719Z,130.0
2023-03-28T06:52:04.222Z,140.0
2023-03-28T06:57:10.727Z,135.0
2023-03-28T07:02:17.086Z,160.0
2023-03-28T07:07:23.499Z,165.0
2023-03-28T07:12:29.829Z,175.0
2023-03-28T07:17:36.379Z,215.0
2023-03-28T07:22:42.760Z,675.0
2023-03-28T07:28:13.277Z,685.0
2023-03-28T07:33:05.294Z,750.0
2023-03-28T07:38:48.635Z,920.0
2023-03-28T07:44:11.804Z,1155.0
2023-03-28T07:48:38.120Z,1410.0
2023-03-28T07:54:05.594Z,740.0
2023-03-28T07:58:27.872Z,695.0
2023-03-28T08:03:58.364Z,700.0
2023-03-28T08:08:40.624Z,710.0
2023-03-28T08:14:11.091Z,690.0
2023-03-28T08:19:09.404Z,710.0
2023-03-28T08:24:33.036Z,800.0
2023-03-28T08:29:06.260Z,745.0
2023-03-28T08:34:02.764Z,770.0
2023-03-28T08:39:18.024Z,530.0
2023-03-28T08:44:25.426Z,475.0
2023-03-28T08:49:31.835Z,770.0
2023-03-28T08:54:38.391Z,1080.0
2023-03-28T09:00:04.794Z,1290.0
2023-03-28T09:04:51.166Z,1640.0
2023-03-28T09:10:21.576Z,1615.0
2023-03-28T09:15:03.904Z,1910.0
2023-03-28T09:20:10.334Z,440.0
2023-03-28T09:25:40.709Z,525.0
2023-03-28T09:30:23.062Z,1760.0
2023-03-28T09:35:29.474Z,2065.0
2023-03-28T09:40:35.970Z,365.0
2023-03-28T09:45:42.294Z,2265.0
2023-03-28T09:50:48.667Z,330.0
2023-03-28T09:56:04.315Z,310.0
2023-03-28T10:00:51.393Z,420.0
2023-03-28T10:06:31.901Z,900.0
2023-03-28T10:11:14.170Z,2420.0
2023-03-28T10:17:17.781Z,2145.0
2023-03-28T10:21:32.122Z,625.0
2023-03-28T10:26:34.463Z,555.0
2023-03-28T10:32:00.872Z,2165.0
2023-03-28T10:36:47.198Z,645.0
2023-03-28T10:41:53.620Z,1490.0
2023-03-28T10:46:59.991Z,2145.0
2023-03-28T10:52:06.361Z,650.0
2023-03-28T10:57:02.861Z,520.0
2023-03-28T11:02:19.189Z,305.0
2023-03-28T11:07:26.687Z,385.0
2023-03-28T11:12:40.916Z,525.0
2023-03-28T11:18:02.925Z,1140.0
2023-03-28T11:23:06.564Z,410.0
2023-03-28T11:27:51.699Z,380.0
2023-03-28T11:32:58.083Z,685.0
2023-03-28T11:38:04.445Z,765.0
2023-03-28T11:43:10.850Z,495.0
2023-03-28T11:48:17.246Z,355.0
2023-03-28T11:53:43.626Z,495.0
2023-03-28T11:58:29.994Z,620.0
2023-03-28T12:03:36.406Z,1005.0
2023-03-28T12:08:42.714Z,935.0
2023-03-28T12:13:55.418Z,980.0
2023-03-28T12:19:15.560Z,1310.0
2023-03-28T12:24:02.036Z,1200.0
2023-03-28T12:29:08.410Z,1960.0
2023-03-28T12:35:36.891Z,2045.0
2023-03-28T12:39:41.170Z,2185.0
2023-03-28T12:44:27.650Z,1980.0
2023-03-28T12:49:34.022Z,2040.0
2023-03-28T12:55:04.424Z,1720.0
2023-03-28T13:00:10.832Z,1340.0
2023-03-28T13:05:37.180Z,1245.0
2023-03-28T13:10:19.519Z,1015.0
2023-03-28T13:15:05.966Z,965.0
2023-03-28T13:20:12.380Z,1115.0
2023-03-28T13:25:38.764Z,1120.0
2023-03-28T13:30:25.109Z,1170.0
2023-03-28T13:35:21.624Z,1290.0
2023-03-28T13:40:58.247Z,1105.0
2023-03-28T13:45:44.496Z,1065.0
2023-03-28T13:50:50.908Z,1285.0
2023-03-28T13:56:22.027Z,1185.0
2023-03-28T14:01:04.389Z,610.0
2023-03-28T14:06:12.349Z,915.0
2023-03-28T14:11:18.705Z,505.0
2023-03-28T14:16:25.214Z,455.0
2023-03-28T14:21:31.604Z,435.0
2023-03-28T14:26:38.039Z,495.0
2023-03-28T14:31:44.455Z,495.0
2023-03-28T14:36:50.815Z,525.0
2023-03-28T14:42:36.382Z,585.0
2023-03-28T14:47:02.650Z,550.0
2023-03-28T14:52:38.110Z,370.0
2023-03-28T14:57:16.441Z,1220.0
2023-03-28T15:02:22.828Z,520.0
2023-03-28T15:07:43.284Z,950.0
2023-03-28T15:17:42.601Z,630.0
2023-03-28T15:22:50.216Z,750.0
2023-03-28T15:27:56.294Z,350.0
2023-03-28T15:33:22.713Z,395.0
2023-03-28T15:38:29.216Z,385.0
2023-03-28T15:43:15.522Z,375.0
2023-03-28T15:48:45.956Z,315.0
2023-03-28T15:53:28.272Z,160.0
2023-03-28T16:00:11.099Z,115.0
2023-03-28T16:03:41.286Z,110.0
2023-03-28T16:08:47.552Z,140.0
2023-03-28T16:13:57.959Z,140.0
2023-03-28T16:19:00.380Z,130.0
2023-03-28T16:24:06.730Z,120.0
2023-03-28T16:29:13.220Z,90.0
2023-03-28T16:34:19.721Z,80.0
2023-03-28T16:39:26.074Z,75.0
2023-03-28T16:44:52.518Z,65.0
2023-03-28T16:49:38.858Z,60.0
2023-03-28T16:54:44.359Z,60.0
2023-03-28T16:59:51.936Z,55.0
2023-03-28T17:04:58.352Z,40.0
2023-03-28T17:10:04.738Z,35.0
2023-03-28T17:15:11.084Z,30.0
2023-03-28T17:20:37.519Z,20.0
2023-03-28T17:25:23.879Z,20.0
2023-03-28T17:30:20.218Z,15.0
2023-03-28T17:35:36.697Z,10.0
2023-03-28T17:41:03.065Z,10.0
2023-03-28T17:45:49.387Z,5.0
2023-03-28T17:50:45.874Z,0.0
2023-03-28T17:56:02.600Z,0.0
2023-03-28T18:01:08.816Z,0.0
2023-03-28T18:06:18.945Z,0.0
2023-03-28T18:11:25.323Z,0.0
2023-03-28T18:16:31.863Z,0.0
2023-03-28T18:21:38.508Z,0.0
2023-03-28T18:26:44.859Z,0.0
2023-03-28T18:31:51.337Z,0.0
2023-03-28T18:37:00.449Z,0.0
2023-03-28T18:42:07.950Z,0.0
2023-03-28T18:47:14.356Z,0.0
2023-03-28T18:52:20.703Z,0.0
2023-03-28T18:58:16.448Z,0.0
2023-03-28T19:03:24.026Z,0.0
2023-03-28T19:09:53.425Z,0.0
2023-03-28T19:14:27.896Z,0.0
2023-03-28T19:19:34.399Z,0.0
2023-03-28T19:29:47.150Z,0.0
2023-03-28T19:34:23.584Z,0.0
2023-03-28T19:35:14.212Z,0.0
2023-03-28T19:40:01.166Z,0.0
2023-03-28T19:45:07.531Z,0.0
2023-03-28T19:50:52.057Z,0.0
2023-03-28T20:00:26.881Z,0.0
2023-03-28T20:05:32.272Z,0.0
2023-03-28T20:11:04.085Z,0.0
2023-03-28T20:15:42.169Z,0.0
2023-03-28T20:15:46.153Z,0.0
2023-03-28T20:20:52.479Z,0.0
2023-03-28T20:27:12.348Z,0.0
2023-03-28T20:31:45.855Z,0.0
2023-03-28T20:36:51.665Z,0.0
2023-03-28T20:41:59.052Z,0.0
2023-03-28T20:47:05.478Z,0.0
2023-03-28T20:52:54.832Z,0.0
2023-03-28T20:57:18.312Z,0.0
2023-03-28T21:02:24.681Z,0.0
2023-03-28T21:08:05.084Z,0.0
2023-03-28T21:12:37.397Z,0.0
2023-03-28T21:17:43.884Z,0.0
2023-03-28T21:22:50.190Z,0.0
2023-03-28T21:27:56.734Z,0.0
2023-03-28T21:33:03.733Z,0.0
2023-03-28T21:38:09.460Z,0.0
2023-03-28T21:43:15.950Z,0.0
2023-03-28T21:48:22.370Z,0.0
2023-03-28T21:53:28.736Z,0.0
2023-03-28T21:58:35.291Z,0.0
2023-03-28T22:03:41.841Z,0.0
2023-03-28T22:08:48.120Z,0.0
2023-03-28T22:14:14.653Z,0.0
2023-03-28T22:19:02.132Z,0.0
2023-03-28T22:24:28.610Z,0.0
2023-03-28T22:29:14.938Z,0.0
2023-03-28T22:34:21.340Z,0.0
2023-03-28T22:39:27.704Z,0.0
2023-03-28T22:44:54.151Z,0.0
2023-03-28T22:49:40.536Z,0.0
2023-03-28T22:54:46.924Z,0.0
2023-03-28T22:59:53.294Z,0.0
2023-03-28T23:04:59.749Z,0.0
2023-03-28T23:10:06.048Z,0.0
2023-03-28T23:15:12.453Z,0.0
2023-03-28T23:20:18.838Z,0.0
2023-03-28T23:25:25.290Z,0.0
2023-03-28T23:30:31.665Z,0.0
2023-03-28T23:35:38.110Z,0.0
2023-03-28T23:40:44.405Z,0.0
2023-03-28T23:46:10.891Z,0.0
2023-03-28T23:50:57.233Z,0.0
2023-03-28T23:56:03.575Z,0.0
